Time;durP1;ratioP1;P1;durP2;ratioP2;P2;SDS_P1;SDS_P2;PMS_P1;PMS_P2;Temp;Humidity;BMP_temperature;BMP_pressure;BME280_temperature;BME280_humidity;BME280_pressure;Samples;Min_cycle;Max_cycle;Signal;HPM_P1;HPM_P2
2023/12/27 00:04:07;;;;;;;4.40;3.20;;;;;;;9.23;99.50;99777.28;7276876;40;20349;31
2023/12/27 00:09:27;;;;;;;4.70;3.10;;;;;;;9.30;99.89;99778.41;7296951;39;20326;31
2023/12/27 00:15:03;;;;;;;4.83;3.30;;;;;;;9.30;98.86;99773.03;7329040;39;20222;31
2023/12/27 00:20:49;;;;;;;;;;;;;;;;;;;;;
2023/12/27 00:26:15;;;;;;;5.90;3.40;;;;;;;9.01;99.94;99765.84;7315833;39;20258;31
2023/12/27 00:31:35;;;;;;;5.50;3.40;;;;;;;9.01;100.00;99770.38;7275205;40;20223;31
2023/12/27 00:37:11;;;;;;;7.50;3.40;;;;;;;8.91;100.00;99770.38;7239296;40;20398;31
2023/12/27 00:42:31;;;;;;;8.20;3.20;;;;;;;8.93;100.00;99768.41;7245531;40;20253;31
2023/12/27 00:48:06;;;;;;;8.10;3.40;;;;;;;8.94;100.00;99775.47;7235557;40;20404;31
2023/12/27 00:53:42;;;;;;;8.05;3.65;;;;;;;8.92;100.00;99785.50;7237139;40;20272;31
2023/12/27 00:59:17;;;;;;;8.00;3.30;;;;;;;8.91;100.00;99785.63;7216323;40;20258;31
2023/12/27 01:04:38;;;;;;;6.70;3.43;;;;;;;8.95;100.00;99777.16;7205240;40;20263;31
2023/12/27 01:10:15;;;;;;;6.43;3.10;;;;;;;8.90;100.00;99779.44;7257354;40;20309;31
2023/12/27 01:15:35;;;;;;;6.57;3.27;;;;;;;8.88;100.00;99792.16;7240854;40;20249;31
2023/12/27 01:21:12;;;;;;;7.63;3.47;;;;;;;8.91;100.00;99786.50;7267124;40;20284;31
2023/12/27 01:26:43;;;;;;;4.93;3.10;;;;;;;8.97;100.00;99788.63;7217727;40;21339;31
2023/12/27 01:32:04;;;;;;;5.50;3.15;;;;;;;8.98;99.92;99793.03;7207294;40;20238;31
2023/12/27 01:37:21;;;;;;;5.00;3.60;;;;;;;8.93;100.00;99789.91;7216878;40;20253;31
2023/12/27 01:42:57;;;;;;;7.65;3.80;;;;;;;8.93;100.00;99772.91;7254609;39;20253;31
2023/12/27 01:48:33;;;;;;;6.30;3.40;;;;;;;8.90;100.00;99773.22;7315596;39;20321;31
2023/12/27 01:54:08;;;;;;;7.60;3.55;;;;;;;8.94;100.00;99771.94;7295829;39;20449;31
2023/12/27 01:59:44;;;;;;;5.35;3.60;;;;;;;8.98;100.00;99774.19;7257228;40;20253;31
2023/12/27 02:05:19;;;;;;;5.23;3.53;;;;;;;9.04;99.76;99773.63;7248095;40;20243;31
2023/12/27 02:10:55;;;;;;;6.87;4.43;;;;;;;9.08;99.39;99767.97;7225917;40;20242;31
2023/12/27 02:16:31;;;;;;;9.50;6.00;;;;;;;9.04;99.47;99760.16;7165758;40;20394;31
2023/12/27 02:22:06;;;;;;;9.05;5.80;;;;;;;9.01;99.69;99765.00;7182886;40;20257;31
2023/12/27 02:27:42;;;;;;;12.97;6.83;;;;;;;9.04;99.80;99754.78;7237235;40;20256;31
2023/12/27 02:33:17;;;;;;;11.13;6.73;;;;;;;9.00;99.55;99758.75;7204451;40;20329;31
2023/12/27 02:38:38;;;;;;;9.67;7.17;;;;;;;8.99;100.00;99751.69;7190515;40;20257;31
2023/12/27 02:44:13;;;;;;;10.40;7.15;;;;;;;9.01;99.83;99755.09;7176181;40;20267;31
2023/12/27 02:49:49;;;;;;;11.17;7.53;;;;;;;8.97;99.95;99755.50;7206715;40;20242;31
2023/12/27 02:55:24;;;;;;;12.37;7.40;;;;;;;8.90;100.00;99747.19;7166637;40;20619;31
2023/12/27 03:07:00;;;;;;;12.07;7.97;;;;;;;8.84;100.00;99747.75;7232373;40;20266;31
2023/12/27 03:17:21;;;;;;;13.95;7.60;;;;;;;8.82;100.00;99733.59;7319070;39;21473;31
2023/12/27 03:22:56;;;;;;;9.00;6.93;;;;;;;8.76;100.00;99717.19;7379752;39;20438;31
2023/12/27 03:28:17;;;;;;;9.20;6.60;;;;;;;8.77;100.00;99719.75;7323773;39;20529;31
2023/12/27 03:33:51;;;;;;;10.80;6.40;;;;;;;8.86;100.00;99709.97;7340613;39;20647;31
2023/12/27 03:39:26;;;;;;;11.03;6.33;;;;;;;8.78;100.00;99707.97;7313908;39;20397;31
2023/12/27 03:45:01;;;;;;;10.20;6.60;;;;;;;8.80;100.00;99718.59;7249898;40;20666;31
2023/12/27 03:50:38;;;;;;;8.90;6.75;;;;;;;8.78;100.00;99710.66;7226904;40;20246;31
2023/12/27 03:56:15;;;;;;;12.25;6.25;;;;;;;8.74;100.00;99698.50;7257813;40;20252;31
2023/12/27 04:01:36;;;;;;;9.63;6.30;;;;;;;8.79;100.00;99709.69;7213589;40;20388;31
2023/12/27 04:12:17;;;;;;;9.20;5.30;;;;;;;8.83;100.00;99700.34;7273898;40;20725;31
2023/12/27 04:22:42;;;;;;;8.63;5.07;;;;;;;8.93;100.00;99703.87;7316681;39;20738;31
2023/12/27 04:33:23;;;;;;;7.50;5.30;;;;;;;8.96;99.35;99706.28;7326200;39;20777;31
2023/12/27 04:38:43;;;;;;;8.73;4.10;;;;;;;9.00;99.51;99704.97;7298246;40;20600;31
2023/12/27 04:49:24;;;;;;;9.03;3.87;;;;;;;8.93;99.07;99698.50;7277889;40;20270;31
2023/12/27 04:54:44;;;;;;;7.37;3.73;;;;;;;8.94;98.36;99680.53;7244304;40;20630;31
2023/12/27 05:05:17;;;;;;;5.63;2.83;;;;;;;8.85;97.56;99674.19;5258908;49;20240;-78
2023/12/27 05:15:41;;;;;;;6.15;2.70;;;;;;;8.84;98.09;99677.84;7354610;39;20690;31
2023/12/27 05:21:17;;;;;;;7.50;2.77;;;;;;;8.85;97.96;99662.59;7359232;39;20348;31
2023/12/27 05:26:37;;;;;;;7.63;2.80;;;;;;;8.93;98.11;99654.62;7340576;39;20243;31
2023/12/27 05:32:12;;;;;;;5.37;2.60;;;;;;;8.90;97.29;99654.94;7334803;39;20313;31
2023/12/27 05:37:48;;;;;;;4.95;2.40;;;;;;;8.88;97.00;99646.16;7347362;39;20255;31
2023/12/27 05:43:23;;;;;;;4.32;2.50;;;;;;;8.85;97.26;99638.38;7296634;39;20326;31
2023/12/27 05:48:43;;;;;;;6.30;2.40;;;;;;;8.83;96.57;99643.91;7299328;40;20238;31
2023/12/27 05:54:18;;;;;;;11.30;5.30;;;;;;;8.74;96.59;99650.13;7328990;39;20225;31
2023/12/27 05:59:52;;;;;;;5.60;2.90;;;;;;;8.68;96.67;99656.09;7306026;39;20339;31
2023/12/27 06:05:24;;;;;;;3.80;2.70;;;;;;;8.66;96.33;99666.13;7087155;39;20974;31
2023/12/27 06:11:00;;;;;;;7.70;3.20;;;;;;;8.60;95.69;99670.22;7225645;40;20245;31
2023/12/27 06:16:20;;;;;;;6.35;2.70;;;;;;;8.62;96.76;99664.72;7167593;40;20252;31
2023/12/27 06:21:40;;;;;;;9.10;3.30;;;;;;;8.66;96.00;99658.06;7153156;40;20776;31
2023/12/27 06:32:19;;;;;;;5.83;2.70;;;;;;;8.58;96.40;99663.31;7248613;40;20245;31
2023/12/27 06:37:54;;;;;;;6.05;2.60;;;;;;;8.53;96.21;99658.37;7250798;40;20773;31
2023/12/27 06:43:14;;;;;;;5.10;2.75;;;;;;;8.51;95.51;99638.03;7214273;40;20273;31
2023/12/27 06:53:55;;;;;;;5.03;2.37;;;;;;;8.44;96.09;99626.13;7215931;40;20274;31
2023/12/27 06:59:12;;;;;;;3.63;2.00;;;;;;;8.46;95.97;99624.16;7226017;40;20248;31
2023/12/27 07:04:47;;;;;;;3.25;2.15;;;;;;;8.41;95.87;99613.00;7259888;40;20758;31
2023/12/27 07:10:24;;;;;;;5.30;2.50;;;;;;;8.40;95.72;99646.22;7279124;40;20849;31
2023/12/27 07:15:44;;;;;;;4.80;2.87;;;;;;;8.36;95.88;99661.78;7265099;40;20261;31
2023/12/27 07:21:20;;;;;;;7.10;4.95;;;;;;;8.35;96.10;99668.13;7298859;39;20255;31
2023/12/27 07:26:56;;;;;;;8.80;4.20;;;;;;;8.31;95.71;99653.28;7287652;39;20244;31
2023/12/27 07:32:17;;;;;;;7.13;3.80;;;;;;;8.29;96.05;99666.03;7267257;40;20234;31
2023/12/27 07:37:34;;;;;;;6.50;3.30;;;;;;;8.24;95.91;99665.56;7302050;39;20252;31
2023/12/27 07:48:15;;;;;;;5.25;3.45;;;;;;;8.19;95.62;99669.66;7341910;39;20271;31
2023/12/27 07:58:55;;;;;;;8.33;4.10;;;;;;;8.15;95.53;99652.97;7379343;39;20252;31
2023/12/27 08:09:31;;;;;;;6.80;3.40;;;;;;;8.19;95.15;99640.97;7349644;39;20267;31
2023/12/27 08:15:06;;;;;;;7.67;4.17;;;;;;;8.25;96.12;99637.69;7275377;40;20734;31
2023/12/27 08:20:41;;;;;;;4.25;3.40;;;;;;;8.30;95.73;99634.63;7278105;40;20347;31
2023/12/27 08:26:15;;;;;;;8.83;4.40;;;;;;;8.30;95.85;99638.16;7258076;40;20339;31
2023/12/27 08:31:50;;;;;;;5.70;3.70;;;;;;;8.32;94.99;99617.38;7236185;40;20253;31
2023/12/27 08:37:25;;;;;;;6.63;3.27;;;;;;;8.26;94.70;99612.53;7246675;40;20242;31
2023/12/27 08:42:59;;;;;;;8.20;2.80;;;;;;;8.15;94.14;99586.69;7236926;40;20254;31
2023/12/27 08:48:31;;;;;;;5.95;2.70;;;;;;;8.18;93.38;99582.03;7257649;40;20249;31
2023/12/27 08:54:06;;;;;;;4.97;2.77;;;;;;;8.13;92.92;99607.47;7255497;40;20756;31
2023/12/27 08:59:42;;;;;;;5.87;2.53;;;;;;;8.12;92.32;99611.13;7188939;40;20261;31
2023/12/27 09:05:17;;;;;;;6.20;3.05;;;;;;;8.10;91.22;99615.81;7206893;40;20721;31
2023/12/27 09:15:57;;;;;;;6.00;2.50;;;;;;;8.19;90.71;99613.25;7261026;39;20863;31
2023/12/27 09:21:33;;;;;;;8.77;2.60;;;;;;;8.25;90.47;99618.91;7243390;40;20253;31
2023/12/27 09:26:53;;;;;;;6.70;2.55;;;;;;;8.35;90.29;99613.56;7260391;40;20237;31
2023/12/27 09:32:29;;;;;;;8.17;2.70;;;;;;;8.38;88.76;99589.13;7261943;40;20246;31
2023/12/27 09:37:50;;;;;;;6.40;2.10;;;;;;;8.46;88.15;99602.69;7232752;40;20256;31
2023/12/27 09:43:25;;;;;;;6.65;2.10;;;;;;;8.40;88.04;99611.31;7305958;39;20320;31
2023/12/27 09:49:01;;;;;;;7.80;2.87;;;;;;;8.32;88.47;99574.44;7279340;39;20616;31
2023/12/27 09:54:36;;;;;;;8.00;2.50;;;;;;;8.31;88.45;99582.63;7158656;40;21395;31
2023/12/27 10:00:12;;;;;;;6.05;2.60;;;;;;;8.33;88.46;99591.38;7183267;40;20741;31
2023/12/27 10:05:50;;;;;;;6.33;3.00;;;;;;;8.45;88.51;99593.78;7236715;40;20257;31
2023/12/27 10:11:25;;;;;;;7.57;2.47;;;;;;;8.39;87.76;99572.84;7205603;40;20270;31
2023/12/27 10:16:45;;;;;;;8.07;3.20;;;;;;;8.39;88.11;99563.94;7207234;40;20300;31
2023/12/27 10:22:20;;;;;;;11.50;3.00;;;;;;;8.32;88.10;99554.78;7249694;40;20320;31
2023/12/27 10:27:40;;;;;;;6.77;2.87;;;;;;;8.43;87.78;99554.59;7252341;40;20289;31
2023/12/27 10:33:13;;;;;;;5.80;2.70;;;;;;;8.44;87.67;99530.28;7281441;40;20751;31
2023/12/27 10:38:47;;;;;;;5.33;2.60;;;;;;;8.45;86.92;99547.25;7171501;40;20285;31
2023/12/27 10:49:27;;;;;;;7.50;2.80;;;;;;;8.61;87.30;99517.94;7203752;40;20663;31
2023/12/27 11:00:08;;;;;;;7.65;3.00;;;;;;;8.74;86.98;99485.34;7290804;39;21378;31
2023/12/27 11:05:39;;;;;;;8.75;3.70;;;;;;;8.79;87.45;99475.87;7317224;39;21038;31
2023/12/27 11:11:14;;;;;;;8.60;3.23;;;;;;;8.88;87.24;99463.38;7324479;39;20422;31
2023/12/27 11:16:50;;;;;;;7.40;2.95;;;;;;;8.95;87.47;99454.56;7260871;40;20249;31
2023/12/27 11:22:21;;;;;;;6.80;2.60;;;;;;;9.12;87.92;99444.00;7234053;40;20277;31
2023/12/27 11:27:56;;;;;;;9.93;3.10;;;;;;;9.18;87.31;99441.53;7198017;40;20733;31
2023/12/27 11:33:35;;;;;;;11.12;7.53;;;;;;;9.20;87.59;99441.41;7197506;40;21397;31
2023/12/27 11:38:55;;;;;;;8.50;4.37;;;;;;;9.31;88.10;99425.03;7245032;40;20289;31
2023/12/27 11:49:34;;;;;;;6.85;3.60;;;;;;;9.27;87.12;99411.03;7311970;39;21442;31
2023/12/27 11:55:10;;;;;;;8.70;3.77;;;;;;;9.28;87.71;99407.37;7290036;39;20321;31
2023/12/27 12:00:30;;;;;;;8.53;3.63;;;;;;;9.39;88.00;99388.28;7306658;39;20311;31
2023/12/27 12:11:24;;;;;;;5.27;3.13;;;;;;;9.50;88.33;99357.62;7294547;39;20252;31
2023/12/27 12:16:58;;;;;;;8.00;3.10;;;;;;;9.52;87.90;99361.03;7316838;39;20277;31
2023/12/27 12:27:32;;;;;;;6.93;3.30;;;;;;;9.47;88.69;99348.03;7279139;40;21319;31
2023/12/27 12:33:07;;;;;;;6.45;3.55;;;;;;;9.49;88.73;99337.09;7287273;39;20275;31
2023/12/27 12:38:42;;;;;;;7.85;4.20;;;;;;;9.42;88.48;99336.88;7274954;40;20383;31
2023/12/27 12:44:17;;;;;;;7.80;4.20;;;;;;;9.35;88.93;99324.19;7248256;40;20615;31
2023/12/27 12:54:55;;;;;;;8.67;4.33;;;;;;;9.31;88.82;99310.22;7321990;39;21281;31
2023/12/27 13:00:30;;;;;;;6.65;4.30;;;;;;;9.25;89.18;99302.78;7123466;39;20282;31
2023/12/27 13:05:51;;;;;;;10.17;4.40;;;;;;;9.27;89.24;99295.41;7283813;39;20245;31
2023/12/27 13:11:27;;;;;;;8.53;3.90;;;;;;;9.26;89.65;99287.50;7280868;40;20259;31
2023/12/27 13:16:59;;;;;;;6.45;4.10;;;;;;;9.27;89.75;99275.72;7267118;39;20295;31
2023/12/27 13:22:34;;;;;;;6.00;3.87;;;;;;;9.25;89.44;99272.38;7271787;40;20928;31
2023/12/27 13:27:54;;;;;;;7.90;3.50;;;;;;;9.29;90.16;99265.66;7257591;40;20245;31
2023/12/27 13:33:31;;;;;;;8.65;3.95;;;;;;;9.32;89.61;99257.28;7237007;40;20251;31
2023/12/27 13:38:51;;;;;;;4.30;2.90;;;;;;;9.34;89.69;99260.66;7253285;40;20272;31
2023/12/27 13:44:08;;;;;;;6.80;3.80;;;;;;;9.30;90.71;99251.22;7287522;39;20802;31
2023/12/27 13:49:43;;;;;;;7.60;3.93;;;;;;;9.26;89.94;99250.66;7313992;39;20253;31
2023/12/27 13:55:21;;;;;;;5.37;3.97;;;;;;;9.20;89.78;99242.41;7216208;40;21272;31
2023/12/27 14:00:36;;;;;;;5.45;3.60;;;;;;;9.23;89.65;99253.69;7226839;40;20364;31
2023/12/27 14:06:14;;;;;;;6.50;3.30;;;;;;;9.13;88.69;99252.91;7188822;40;20351;31
2023/12/27 14:11:50;;;;;;;6.30;3.20;;;;;;;9.07;88.85;99248.19;7227983;40;20228;31
2023/12/27 14:17:11;;;;;;;9.33;3.40;;;;;;;9.02;88.99;99243.28;7191882;40;20463;31
2023/12/27 14:22:47;;;;;;;10.45;5.30;;;;;;;9.04;88.97;99246.63;7252441;39;20283;31
2023/12/27 14:33:27;;;;;;;14.03;6.87;;;;;;;9.09;88.71;99248.00;7330138;39;20302;31
2023/12/27 14:39:05;;;;;;;12.20;6.45;;;;;;;9.02;88.63;99245.97;7311615;39;20240;31
2023/12/27 14:44:27;;;;;;;10.57;6.30;;;;;;;9.01;88.41;99246.97;7236066;40;20302;31
2023/12/27 14:49:47;;;;;;;9.70;5.90;;;;;;;8.96;88.73;99232.28;7298148;39;20252;31
2023/12/27 14:55:24;;;;;;;15.47;8.80;;;;;;;8.92;88.45;99229.06;7294354;39;20391;31
2023/12/27 15:01:00;;;;;;;20.63;10.50;;;;;;;8.88;88.30;99230.38;7294766;39;20245;31
2023/12/27 15:06:36;;;;;;;15.73;9.30;;;;;;;8.88;88.72;99233.06;7213847;40;20413;31
2023/12/27 15:12:14;;;;;;;18.10;11.43;;;;;;;8.77;87.77;99237.84;7157614;40;20247;31
2023/12/27 15:17:34;;;;;;;22.67;12.43;;;;;;;8.74;88.32;99232.75;7153912;40;20341;31
2023/12/27 15:23:00;;;;;;;22.23;11.73;;;;;;;8.77;89.01;99225.25;7189004;40;20262;31
2023/12/27 15:28:30;;;;;;;16.25;7.80;;;;;;;8.64;87.89;99208.69;7240539;40;20370;31
2023/12/27 15:34:00;;;;;;;13.60;7.05;;;;;;;8.55;88.77;99205.09;7282189;40;20271;31
2023/12/27 15:39:35;;;;;;;9.40;6.70;;;;;;;8.46;88.60;99203.31;7240368;40;20806;31
2023/12/27 15:50:18;;;;;;;11.10;5.13;;;;;;;8.22;88.84;99197.66;7251704;40;20781;31
2023/12/27 15:55:38;;;;;;;8.00;4.50;;;;;;;8.18;88.59;99208.84;7257774;40;20703;31
2023/12/27 16:00:58;;;;;;;14.33;6.23;;;;;;;8.14;88.13;99202.94;7271101;39;20259;31
2023/12/27 16:06:37;;;;;;;7.60;5.20;;;;;;;7.96;87.83;99200.22;7315691;39;20590;31
2023/12/27 16:12:12;;;;;;;8.15;4.65;;;;;;;7.81;87.98;99196.34;7266772;40;20262;31
2023/12/27 16:17:34;;;;;;;8.73;4.70;;;;;;;7.80;88.19;99197.34;7237838;40;20399;31
2023/12/27 16:23:09;;;;;;;7.70;5.57;;;;;;;7.71;88.40;99190.19;7247222;40;20478;31
2023/12/27 16:33:49;;;;;;;6.50;4.73;;;;;;;7.61;88.84;99202.78;7312150;39;21140;31
2023/12/27 16:39:08;;;;;;;5.30;4.30;;;;;;;7.58;89.16;99203.94;7320995;39;20693;31
2023/12/27 16:44:45;;;;;;;7.70;3.80;;;;;;;7.49;88.89;99198.63;7271003;40;20253;31
2023/12/27 16:50:18;;;;;;;7.47;4.07;;;;;;;7.45;88.63;99203.44;7299017;39;20252;31
2023/12/27 16:55:53;;;;;;;5.73;4.10;;;;;;;7.38;87.89;99199.63;7238221;40;20344;31
2023/12/27 17:01:30;;;;;;;6.70;4.20;;;;;;;7.20;87.45;99183.47;7217016;40;20253;31
2023/12/27 17:07:06;;;;;;;6.00;4.10;;;;;;;7.24;89.16;99184.84;7219310;40;20235;31
2023/12/27 17:12:43;;;;;;;7.65;3.95;;;;;;;7.24;89.15;99184.84;7215959;40;20482;31
2023/12/27 17:18:17;;;;;;;6.00;3.90;;;;;;;7.19;87.25;99175.59;7221934;40;20228;31
2023/12/27 17:23:37;;;;;;;6.40;3.90;;;;;;;7.12;89.18;99180.66;7247662;40;20261;31
2023/12/27 17:28:57;;;;;;;5.50;3.40;;;;;;;7.09;88.02;99172.06;7271396;40;20245;31
2023/12/27 17:34:31;;;;;;;4.70;3.60;;;;;;;6.96;87.16;99167.03;7332583;39;20381;31
2023/12/27 17:39:49;;;;;;;6.20;3.50;;;;;;;6.93;88.01;99169.16;7341464;39;20277;31
2023/12/27 17:45:25;;;;;;;7.05;3.50;;;;;;;6.89;87.72;99157.88;7305224;39;20476;31
2023/12/27 17:51:02;;;;;;;5.43;3.33;;;;;;;6.88;86.98;99145.50;7270007;40;20386;31
2023/12/27 17:56:23;;;;;;;4.40;3.50;;;;;;;6.72;87.94;99154.09;7234085;40;20269;31
2023/12/27 18:01:58;;;;;;;4.80;3.30;;;;;;;6.71;88.33;99139.00;7273747;40;20698;31
2023/12/27 18:07:35;;;;;;;6.10;3.80;;;;;;;6.51;87.67;99137.34;7235237;40;20242;31
2023/12/27 18:12:55;;;;;;;8.15;3.70;;;;;;;6.47;88.14;99145.81;7240275;40;20322;31
2023/12/27 18:18:16;;;;;;;7.45;3.60;;;;;;;6.36;87.62;99127.25;7273628;40;20389;31
2023/12/27 18:23:49;;;;;;;5.70;3.35;;;;;;;6.36;87.30;99121.88;7228621;40;20799;31
2023/12/27 18:29:24;;;;;;;5.95;4.65;;;;;;;6.42;87.89;99126.66;7280073;39;20421;31
2023/12/27 18:34:45;;;;;;;10.50;6.70;;;;;;;6.45;88.11;99121.84;7248535;40;20371;31
2023/12/27 18:40:22;;;;;;;6.23;3.50;;;;;;;6.19;86.73;99110.88;7259408;40;21602;31
2023/12/27 18:45:46;;;;;;;5.15;3.70;;;;;;;6.16;87.71;99119.22;7235470;40;20242;31
2023/12/27 18:51:18;;;;;;;6.33;4.57;;;;;;;6.05;86.50;99127.38;7256813;40;20394;31
2023/12/27 18:56:54;;;;;;;8.07;4.70;;;;;;;6.01;87.12;99128.62;7260452;40;20245;31
2023/12/27 19:02:14;;;;;;;10.55;6.90;;;;;;;6.06;87.46;99137.06;7238093;40;20238;31
2023/12/27 19:07:49;;;;;;;13.83;6.73;;;;;;;6.10;87.98;99124.28;7266790;40;20261;31
2023/12/27 19:13:27;;;;;;;5.30;4.20;;;;;;;5.94;87.14;99126.66;7277203;40;20240;31
2023/12/27 19:19:03;;;;;;;5.70;4.27;;;;;;;5.89;87.22;99127.91;7265640;40;20272;31
2023/12/27 19:24:21;;;;;;;7.12;5.37;;;;;;;5.89;87.80;99127.91;7090573;40;21282;31
2023/12/27 19:29:57;;;;;;;8.50;6.10;;;;;;;5.85;87.28;99125.63;7282570;40;20260;31
2023/12/27 19:35:32;;;;;;;7.27;4.37;;;;;;;5.89;87.88;99135.09;7238924;40;20670;31
2023/12/27 19:40:52;;;;;;;7.64;5.20;;;;;;;6.00;87.38;99137.66;7254879;40;20730;31
2023/12/27 19:46:29;;;;;;;13.00;6.60;;;;;;;6.07;86.65;99122.72;7295085;39;20676;31
2023/12/27 19:51:50;;;;;;;10.37;5.77;;;;;;;6.16;87.00;99124.56;7307624;39;20253;31
2023/12/27 19:57:10;;;;;;;7.45;5.10;;;;;;;6.19;87.23;99126.09;7324096;39;20687;31
2023/12/27 20:02:48;;;;;;;5.63;3.80;;;;;;;6.08;85.40;99145.81;7297134;39;20374;31
2023/12/27 20:08:23;;;;;;;6.60;4.77;;;;;;;6.07;85.71;99165.53;7264200;40;20256;31
2023/12/27 20:13:58;;;;;;;6.47;3.80;;;;;;;6.05;86.17;99162.16;7246947;40;20241;31
2023/12/27 20:19:34;;;;;;;6.70;3.90;;;;;;;6.12;85.14;99157.94;7234753;40;20284;31
2023/12/27 20:29:59;;;;;;;4.20;3.27;;;;;;;6.25;85.56;99165.69;7215707;40;20269;31
2023/12/27 20:35:37;;;;;;;6.33;3.37;;;;;;;6.30;83.60;99156.25;7205964;40;20269;31
2023/12/27 20:45:57;;;;;;;6.40;3.83;;;;;;;6.52;83.79;99165.84;7296314;39;21420;31
2023/12/27 20:51:31;;;;;;;6.70;3.80;;;;;;;6.51;82.73;99179.34;7292440;39;20237;31
2023/12/27 20:57:06;;;;;;;5.63;3.83;;;;;;;6.55;83.34;99191.47;7295740;40;20688;31
2023/12/27 21:02:28;;;;;;;9.70;5.40;;;;;;;6.39;83.84;99194.72;7301297;39;20625;31
2023/12/27 21:08:02;;;;;;;6.73;4.30;;;;;;;6.24;82.93;99196.09;7295563;39;20275;31
2023/12/27 21:18:24;;;;;;;4.70;3.20;;;;;;;6.22;83.86;99198.94;7288958;39;21326;31
2023/12/27 21:23:55;;;;;;;8.65;4.20;;;;;;;6.20;83.09;99184.00;7284870;39;20269;31
2023/12/27 21:29:30;;;;;;;9.20;4.15;;;;;;;6.22;82.51;99184.72;7220685;40;20438;31
2023/12/27 21:34:50;;;;;;;8.00;5.27;;;;;;;6.40;82.61;99182.19;7180091;40;20534;31
2023/12/27 21:40:25;;;;;;;5.75;3.90;;;;;;;6.46;81.33;99182.44;7194830;40;20262;31
2023/12/27 21:45:46;;;;;;;5.17;3.20;;;;;;;6.57;81.30;99181.47;7187704;40;20316;31
2023/12/27 21:51:29;;;;;;;6.85;3.70;;;;;;;6.51;80.95;99188.22;7244037;40;20245;31
2023/12/27 21:57:05;;;;;;;6.50;4.30;;;;;;;6.45;81.00;99191.47;7286532;39;20264;31
2023/12/27 22:02:26;;;;;;;8.87;5.20;;;;;;;6.50;81.61;99201.75;7208210;40;20700;31
2023/12/27 22:07:47;;;;;;;18.45;10.55;;;;;;;6.48;82.85;99195.72;7157490;40;20251;31
2023/12/27 22:13:22;;;;;;;11.43;8.67;;;;;;;6.45;82.93;99191.47;7167480;40;20459;31
2023/12/27 22:18:57;;;;;;;12.10;8.67;;;;;;;6.43;82.21;99197.94;7252191;39;20696;31
2023/12/27 22:24:18;;;;;;;10.63;7.57;;;;;;;6.45;82.79;99185.28;7271246;40;20330;31
2023/12/27 22:29:54;;;;;;;14.13;8.63;;;;;;;6.47;83.05;99194.84;7315111;39;20240;31
2023/12/27 22:35:15;;;;;;;13.77;9.17;;;;;;;6.48;83.38;99182.31;7215524;40;20257;31
2023/12/27 22:40:44;;;;;;;13.43;7.43;;;;;;;6.46;83.81;99189.62;7259740;40;20704;31
2023/12/27 22:46:21;;;;;;;8.87;6.43;;;;;;;6.44;83.52;99184.44;7262248;40;20396;31
2023/12/27 22:51:56;;;;;;;16.63;10.33;;;;;;;6.44;83.84;99172.88;7323076;39;20267;31
2023/12/27 22:57:14;;;;;;;17.80;10.40;;;;;;;6.41;83.78;99173.13;7359473;39;21390;31
2023/12/27 23:02:50;;;;;;;20.75;11.60;;;;;;;6.37;83.18;99194.00;7275794;40;20319;31
2023/12/27 23:08:25;;;;;;;12.20;7.20;;;;;;;6.35;83.87;99201.34;7249543;40;20755;31
2023/12/27 23:13:46;;;;;;;7.10;5.80;;;;;;;6.32;83.55;99213.16;7238760;40;20305;31
2023/12/27 23:19:23;;;;;;;8.67;6.23;;;;;;;6.29;83.19;99201.88;7247259;40;20240;31
2023/12/27 23:24:40;;;;;;;12.03;5.90;;;;;;;6.36;83.45;99192.34;7299968;39;20808;31
2023/12/27 23:30:15;;;;;;;7.87;5.90;;;;;;;6.36;83.14;99204.88;7303659;39;20260;31
2023/12/27 23:35:52;;;;;;;10.00;6.90;;;;;;;6.42;82.68;99194.44;7228956;40;20301;31
2023/12/27 23:41:26;;;;;;;9.87;5.30;;;;;;;6.47;82.18;99207.41;7256579;40;20525;31
2023/12/27 23:52:04;;;;;;;6.65;5.00;;;;;;;6.58;82.25;99231.37;7271224;39;21762;31
